sensor_id;sensor_type;location;lat;lon;timestamp;temperature;humidity
26107;DHT22;13866;50.748;12.630;2023-06-14T00:00:10;11.60;99.90
26107;DHT22;13866;50.748;12.630;2023-06-14T00:02:38;11.50;99.90
26107;DHT22;13866;50.748;12.630;2023-06-14T00:05:05;11.50;99.90
26107;DHT22;13866;50.748;12.630;2023-06-14T00:07:38;11.20;99.90
26107;DHT22;13866;50.748;12.630;2023-06-14T00:10:08;11.30;99.90
26107;DHT22;13866;50.748;12.630;2023-06-14T00:12:34;11.40;99.90
26107;DHT22;13866;50.748;12.630;2023-06-14T00:14:59;11.50;99.90
26107;DHT22;13866;50.748;12.630;2023-06-14T00:17:27;11.40;99.90
26107;DHT22;13866;50.748;12.630;2023-06-14T00:19:58;11.40;99.90
26107;DHT22;13866;50.748;12.630;2023-06-14T00:22:24;11.40;99.90
26107;DHT22;13866;50.748;12.630;2023-06-14T00:24:50;11.40;99.90
26107;DHT22;13866;50.748;12.630;2023-06-14T00:27:16;11.20;99.90
26107;DHT22;13866;50.748;12.630;2023-06-14T00:29:41;11.40;99.90
26107;DHT22;13866;50.748;12.630;2023-06-14T00:32:07;11.30;99.90
26107;DHT22;13866;50.748;12.630;2023-06-14T00:34:33;11.20;99.90
26107;DHT22;13866;50.748;12.630;2023-06-14T00:36:59;11.30;99.90
26107;DHT22;13866;50.748;12.630;2023-06-14T00:39:25;11.20;99.90
26107;DHT22;13866;50.748;12.630;2023-06-14T00:41:50;11.20;99.90
26107;DHT22;13866;50.748;12.630;2023-06-14T00:44:16;11.20;99.90
26107;DHT22;13866;50.748;12.630;2023-06-14T00:46:42;11.30;99.90
26107;DHT22;13866;50.748;12.630;2023-06-14T00:49:09;11.30;99.90
26107;DHT22;13866;50.748;12.630;2023-06-14T00:51:36;11.20;99.90
26107;DHT22;13866;50.748;12.630;2023-06-14T00:54:03;11.00;99.90
26107;DHT22;13866;50.748;12.630;2023-06-14T00:56:28;11.20;99.90
26107;DHT22;13866;50.748;12.630;2023-06-14T00:58:55;11.00;99.90
26107;DHT22;13866;50.748;12.630;2023-06-14T01:01:21;11.00;99.90
26107;DHT22;13866;50.748;12.630;2023-06-14T01:03:47;11.00;99.90
26107;DHT22;13866;50.748;12.630;2023-06-14T01:06:23;10.90;99.90
26107;DHT22;13866;50.748;12.630;2023-06-14T01:09:15;10.80;99.90
26107;DHT22;13866;50.748;12.630;2023-06-14T01:11:58;10.70;99.90
26107;DHT22;13866;50.748;12.630;2023-06-14T01:14:25;10.80;99.90
26107;DHT22;13866;50.748;12.630;2023-06-14T01:16:53;10.80;99.90
26107;DHT22;13866;50.748;12.630;2023-06-14T01:19:19;10.80;99.90
26107;DHT22;13866;50.748;12.630;2023-06-14T01:21:48;10.90;99.90
26107;DHT22;13866;50.748;12.630;2023-06-14T01:24:16;10.80;99.90
26107;DHT22;13866;50.748;12.630;2023-06-14T01:26:41;10.80;99.90
26107;DHT22;13866;50.748;12.630;2023-06-14T01:29:13;10.90;99.90
26107;DHT22;13866;50.748;12.630;2023-06-14T01:31:41;10.70;99.90
26107;DHT22;13866;50.748;12.630;2023-06-14T01:34:08;10.70;99.90
26107;DHT22;13866;50.748;12.630;2023-06-14T01:36:36;10.80;99.90
26107;DHT22;13866;50.748;12.630;2023-06-14T01:39:03;10.70;99.90
26107;DHT22;13866;50.748;12.630;2023-06-14T01:41:30;10.60;99.90
26107;DHT22;13866;50.748;12.630;2023-06-14T01:43:56;10.60;99.90
26107;DHT22;13866;50.748;12.630;2023-06-14T01:46:23;10.60;99.90
26107;DHT22;13866;50.748;12.630;2023-06-14T01:48:49;10.60;99.90
26107;DHT22;13866;50.748;12.630;2023-06-14T01:51:15;10.50;99.90
26107;DHT22;13866;50.748;12.630;2023-06-14T01:53:40;10.50;99.90
26107;DHT22;13866;50.748;12.630;2023-06-14T01:56:06;10.50;99.90
26107;DHT22;13866;50.748;12.630;2023-06-14T01:58:31;10.60;99.90
26107;DHT22;13866;50.748;12.630;2023-06-14T02:00:58;10.60;99.90
26107;DHT22;13866;50.748;12.630;2023-06-14T02:03:25;10.40;99.90
26107;DHT22;13866;50.748;12.630;2023-06-14T02:05:51;10.40;99.90
26107;DHT22;13866;50.748;12.630;2023-06-14T02:08:17;10.50;99.90
26107;DHT22;13866;50.748;12.630;2023-06-14T02:10:42;10.50;99.90
26107;DHT22;13866;50.748;12.630;2023-06-14T02:13:08;10.30;99.90
26107;DHT22;13866;50.748;12.630;2023-06-14T02:15:34;10.30;99.90
26107;DHT22;13866;50.748;12.630;2023-06-14T02:18:01;10.30;99.90
26107;DHT22;13866;50.748;12.630;2023-06-14T02:20:27;10.30;99.90
26107;DHT22;13866;50.748;12.630;2023-06-14T02:22:53;10.30;99.90
26107;DHT22;13866;50.748;12.630;2023-06-14T02:25:19;10.30;99.90
26107;DHT22;13866;50.748;12.630;2023-06-14T02:27:44;10.20;99.90
26107;DHT22;13866;50.748;12.630;2023-06-14T02:30:10;10.20;99.90
26107;DHT22;13866;50.748;12.630;2023-06-14T02:32:36;10.10;99.90
26107;DHT22;13866;50.748;12.630;2023-06-14T02:35:02;10.10;99.90
26107;DHT22;13866;50.748;12.630;2023-06-14T02:37:28;10.10;99.90
26107;DHT22;13866;50.748;12.630;2023-06-14T02:39:54;9.90;99.90
26107;DHT22;13866;50.748;12.630;2023-06-14T02:42:19;10.00;99.90
26107;DHT22;13866;50.748;12.630;2023-06-14T02:44:45;10.10;99.90
26107;DHT22;13866;50.748;12.630;2023-06-14T02:47:12;10.10;99.90
26107;DHT22;13866;50.748;12.630;2023-06-14T02:49:37;10.10;99.90
26107;DHT22;13866;50.748;12.630;2023-06-14T02:52:03;10.10;99.90
26107;DHT22;13866;50.748;12.630;2023-06-14T02:54:28;9.90;99.90
26107;DHT22;13866;50.748;12.630;2023-06-14T02:56:54;9.90;99.90
26107;DHT22;13866;50.748;12.630;2023-06-14T02:59:19;9.80;99.90
26107;DHT22;13866;50.748;12.630;2023-06-14T03:01:46;9.80;99.90
26107;DHT22;13866;50.748;12.630;2023-06-14T03:04:12;9.80;99.90
26107;DHT22;13866;50.748;12.630;2023-06-14T03:06:37;9.70;99.90
26107;DHT22;13866;50.748;12.630;2023-06-14T03:09:05;9.80;99.90
26107;DHT22;13866;50.748;12.630;2023-06-14T03:11:31;9.80;99.90
26107;DHT22;13866;50.748;12.630;2023-06-14T03:13:56;9.80;99.90
26107;DHT22;13866;50.748;12.630;2023-06-14T03:16:22;9.70;99.90
26107;DHT22;13866;50.748;12.630;2023-06-14T03:18:52;9.60;99.90
26107;DHT22;13866;50.748;12.630;2023-06-14T03:21:19;9.50;99.90
26107;DHT22;13866;50.748;12.630;2023-06-14T03:23:45;9.30;99.90
26107;DHT22;13866;50.748;12.630;2023-06-14T03:26:11;9.20;99.90
26107;DHT22;13866;50.748;12.630;2023-06-14T03:28:40;9.30;99.90
26107;DHT22;13866;50.748;12.630;2023-06-14T03:31:06;9.30;99.90
26107;DHT22;13866;50.748;12.630;2023-06-14T03:33:34;9.40;99.90
26107;DHT22;13866;50.748;12.630;2023-06-14T03:35:59;9.50;99.90
26107;DHT22;13866;50.748;12.630;2023-06-14T03:38:25;9.60;99.90
26107;DHT22;13866;50.748;12.630;2023-06-14T03:40:51;9.70;99.90
26107;DHT22;13866;50.748;12.630;2023-06-14T03:43:16;10.00;99.90
26107;DHT22;13866;50.748;12.630;2023-06-14T03:45:41;10.10;99.90
26107;DHT22;13866;50.748;12.630;2023-06-14T03:48:08;10.30;99.90
26107;DHT22;13866;50.748;12.630;2023-06-14T03:50:34;10.60;99.90
26107;DHT22;13866;50.748;12.630;2023-06-14T03:53:00;10.80;99.90
26107;DHT22;13866;50.748;12.630;2023-06-14T03:55:26;11.00;99.90
26107;DHT22;13866;50.748;12.630;2023-06-14T03:57:53;11.20;99.90
26107;DHT22;13866;50.748;12.630;2023-06-14T04:00:18;11.30;99.90
26107;DHT22;13866;50.748;12.630;2023-06-14T04:02:44;11.50;99.90
26107;DHT22;13866;50.748;12.630;2023-06-14T04:05:09;11.60;99.90
26107;DHT22;13866;50.748;12.630;2023-06-14T04:07:35;11.90;99.90
26107;DHT22;13866;50.748;12.630;2023-06-14T04:10:11;11.90;99.90
26107;DHT22;13866;50.748;12.630;2023-06-14T04:12:36;12.30;99.90
26107;DHT22;13866;50.748;12.630;2023-06-14T04:15:02;12.40;99.90
26107;DHT22;13866;50.748;12.630;2023-06-14T04:17:28;12.50;99.90
26107;DHT22;13866;50.748;12.630;2023-06-14T04:19:53;12.70;99.90
26107;DHT22;13866;50.748;12.630;2023-06-14T04:22:19;12.80;99.90
26107;DHT22;13866;50.748;12.630;2023-06-14T04:24:44;12.90;99.90
26107;DHT22;13866;50.748;12.630;2023-06-14T04:27:10;13.00;99.90
26107;DHT22;13866;50.748;12.630;2023-06-14T04:29:35;12.80;99.90
26107;DHT22;13866;50.748;12.630;2023-06-14T04:32:01;12.80;99.90
26107;DHT22;13866;50.748;12.630;2023-06-14T04:34:27;13.00;99.90
26107;DHT22;13866;50.748;12.630;2023-06-14T04:36:59;13.00;99.90
26107;DHT22;13866;50.748;12.630;2023-06-14T04:39:26;13.00;99.90
26107;DHT22;13866;50.748;12.630;2023-06-14T04:41:52;13.20;99.90
26107;DHT22;13866;50.748;12.630;2023-06-14T04:44:22;13.30;99.90
26107;DHT22;13866;50.748;12.630;2023-06-14T04:46:49;13.10;99.90
26107;DHT22;13866;50.748;12.630;2023-06-14T04:49:15;13.10;99.90
26107;DHT22;13866;50.748;12.630;2023-06-14T04:51:42;13.00;99.90
26107;DHT22;13866;50.748;12.630;2023-06-14T04:54:11;12.80;99.90
26107;DHT22;13866;50.748;12.630;2023-06-14T04:56:40;12.80;99.90
26107;DHT22;13866;50.748;12.630;2023-06-14T04:59:07;12.70;99.90
26107;DHT22;13866;50.748;12.630;2023-06-14T05:01:34;12.50;99.90
26107;DHT22;13866;50.748;12.630;2023-06-14T05:03:59;12.40;99.90
26107;DHT22;13866;50.748;12.630;2023-06-14T05:06:25;12.60;99.90
26107;DHT22;13866;50.748;12.630;2023-06-14T05:08:53;12.80;99.90
26107;DHT22;13866;50.748;12.630;2023-06-14T05:11:18;13.00;99.90
26107;DHT22;13866;50.748;12.630;2023-06-14T05:13:44;13.00;99.90
26107;DHT22;13866;50.748;12.630;2023-06-14T05:16:12;13.00;99.90
26107;DHT22;13866;50.748;12.630;2023-06-14T05:18:41;12.90;99.90
26107;DHT22;13866;50.748;12.630;2023-06-14T05:21:06;13.10;99.90
26107;DHT22;13866;50.748;12.630;2023-06-14T05:23:32;13.00;99.90
26107;DHT22;13866;50.748;12.630;2023-06-14T05:25:58;13.20;99.90
26107;DHT22;13866;50.748;12.630;2023-06-14T05:28:24;13.20;99.90
26107;DHT22;13866;50.748;12.630;2023-06-14T05:30:49;13.50;99.90
26107;DHT22;13866;50.748;12.630;2023-06-14T05:33:15;13.80;99.90
26107;DHT22;13866;50.748;12.630;2023-06-14T05:35:40;14.00;99.90
26107;DHT22;13866;50.748;12.630;2023-06-14T05:38:06;14.20;99.90
26107;DHT22;13866;50.748;12.630;2023-06-14T05:40:33;14.10;99.90
26107;DHT22;13866;50.748;12.630;2023-06-14T05:42:58;14.10;99.90
26107;DHT22;13866;50.748;12.630;2023-06-14T05:45:23;13.80;99.90
26107;DHT22;13866;50.748;12.630;2023-06-14T05:47:49;14.30;99.90
26107;DHT22;13866;50.748;12.630;2023-06-14T05:50:15;14.10;99.90
26107;DHT22;13866;50.748;12.630;2023-06-14T05:52:41;13.90;99.90
26107;DHT22;13866;50.748;12.630;2023-06-14T05:55:06;14.50;99.90
26107;DHT22;13866;50.748;12.630;2023-06-14T05:57:32;14.80;99.90
26107;DHT22;13866;50.748;12.630;2023-06-14T05:59:57;14.30;99.90
26107;DHT22;13866;50.748;12.630;2023-06-14T06:02:23;14.70;99.90
26107;DHT22;13866;50.748;12.630;2023-06-14T06:04:49;15.10;99.90
26107;DHT22;13866;50.748;12.630;2023-06-14T06:07:15;14.90;99.90
26107;DHT22;13866;50.748;12.630;2023-06-14T06:09:40;14.80;99.90
26107;DHT22;13866;50.748;12.630;2023-06-14T06:12:06;15.10;99.90
26107;DHT22;13866;50.748;12.630;2023-06-14T06:14:43;15.10;99.90
26107;DHT22;13866;50.748;12.630;2023-06-14T06:17:11;14.70;99.90
26107;DHT22;13866;50.748;12.630;2023-06-14T06:19:36;15.20;99.90
26107;DHT22;13866;50.748;12.630;2023-06-14T06:22:02;15.20;99.90
26107;DHT22;13866;50.748;12.630;2023-06-14T06:24:30;14.80;99.90
26107;DHT22;13866;50.748;12.630;2023-06-14T06:26:55;14.60;99.90
26107;DHT22;13866;50.748;12.630;2023-06-14T06:29:21;15.00;99.90
26107;DHT22;13866;50.748;12.630;2023-06-14T06:31:46;15.60;99.90
26107;DHT22;13866;50.748;12.630;2023-06-14T06:34:11;15.90;99.90
26107;DHT22;13866;50.748;12.630;2023-06-14T06:36:37;16.10;99.90
26107;DHT22;13866;50.748;12.630;2023-06-14T06:39:02;16.40;99.90
26107;DHT22;13866;50.748;12.630;2023-06-14T06:41:34;16.70;99.90
26107;DHT22;13866;50.748;12.630;2023-06-14T06:44:02;17.00;99.90
26107;DHT22;13866;50.748;12.630;2023-06-14T06:46:28;17.20;99.90
26107;DHT22;13866;50.748;12.630;2023-06-14T06:48:53;17.40;99.90
26107;DHT22;13866;50.748;12.630;2023-06-14T06:51:19;17.60;99.90
26107;DHT22;13866;50.748;12.630;2023-06-14T06:53:52;17.40;99.90
26107;DHT22;13866;50.748;12.630;2023-06-14T06:56:18;16.90;99.90
26107;DHT22;13866;50.748;12.630;2023-06-14T06:58:44;17.20;99.90
26107;DHT22;13866;50.748;12.630;2023-06-14T07:01:10;17.20;99.90
26107;DHT22;13866;50.748;12.630;2023-06-14T07:03:36;17.50;99.90
26107;DHT22;13866;50.748;12.630;2023-06-14T07:06:02;17.80;99.90
26107;DHT22;13866;50.748;12.630;2023-06-14T07:08:27;17.90;99.90
26107;DHT22;13866;50.748;12.630;2023-06-14T07:10:53;17.70;99.90
26107;DHT22;13866;50.748;12.630;2023-06-14T07:13:18;17.80;99.90
26107;DHT22;13866;50.748;12.630;2023-06-14T07:15:44;17.90;99.90
26107;DHT22;13866;50.748;12.630;2023-06-14T07:18:10;18.30;99.90
26107;DHT22;13866;50.748;12.630;2023-06-14T07:20:35;18.40;99.90
26107;DHT22;13866;50.748;12.630;2023-06-14T07:23:03;18.50;99.90
26107;DHT22;13866;50.748;12.630;2023-06-14T07:25:28;18.30;99.90
26107;DHT22;13866;50.748;12.630;2023-06-14T07:27:54;18.40;99.90
26107;DHT22;13866;50.748;12.630;2023-06-14T07:30:20;17.90;99.90
26107;DHT22;13866;50.748;12.630;2023-06-14T07:32:45;18.20;99.90
26107;DHT22;13866;50.748;12.630;2023-06-14T07:35:11;18.50;99.90
26107;DHT22;13866;50.748;12.630;2023-06-14T07:37:36;18.90;99.90
26107;DHT22;13866;50.748;12.630;2023-06-14T07:40:02;18.80;99.90
26107;DHT22;13866;50.748;12.630;2023-06-14T07:42:33;18.70;99.90
26107;DHT22;13866;50.748;12.630;2023-06-14T07:44:58;18.50;99.90
26107;DHT22;13866;50.748;12.630;2023-06-14T07:47:24;18.60;99.90
26107;DHT22;13866;50.748;12.630;2023-06-14T07:49:50;18.70;99.90
26107;DHT22;13866;50.748;12.630;2023-06-14T07:52:16;18.80;99.90
26107;DHT22;13866;50.748;12.630;2023-06-14T07:54:41;18.80;99.90
26107;DHT22;13866;50.748;12.630;2023-06-14T07:57:07;18.40;99.90
26107;DHT22;13866;50.748;12.630;2023-06-14T07:59:32;18.70;99.90
26107;DHT22;13866;50.748;12.630;2023-06-14T08:01:58;19.20;99.90
26107;DHT22;13866;50.748;12.630;2023-06-14T08:04:23;19.50;99.90
26107;DHT22;13866;50.748;12.630;2023-06-14T08:06:50;19.70;99.90
26107;DHT22;13866;50.748;12.630;2023-06-14T08:09:16;19.50;99.90
26107;DHT22;13866;50.748;12.630;2023-06-14T08:11:41;19.30;99.90
26107;DHT22;13866;50.748;12.630;2023-06-14T08:14:07;18.70;99.90
26107;DHT22;13866;50.748;12.630;2023-06-14T08:16:33;18.70;99.90
26107;DHT22;13866;50.748;12.630;2023-06-14T08:18:58;18.90;99.90
26107;DHT22;13866;50.748;12.630;2023-06-14T08:21:24;18.50;99.90
26107;DHT22;13866;50.748;12.630;2023-06-14T08:23:54;18.80;99.90
26107;DHT22;13866;50.748;12.630;2023-06-14T08:26:20;18.40;99.90
26107;DHT22;13866;50.748;12.630;2023-06-14T08:28:46;18.40;99.90
26107;DHT22;13866;50.748;12.630;2023-06-14T08:31:11;18.20;99.90
26107;DHT22;13866;50.748;12.630;2023-06-14T08:33:38;18.90;99.90
26107;DHT22;13866;50.748;12.630;2023-06-14T08:36:04;19.50;99.90
26107;DHT22;13866;50.748;12.630;2023-06-14T08:38:30;19.00;99.90
26107;DHT22;13866;50.748;12.630;2023-06-14T08:40:57;19.00;99.90
26107;DHT22;13866;50.748;12.630;2023-06-14T08:43:23;18.90;99.90
26107;DHT22;13866;50.748;12.630;2023-06-14T08:45:54;19.10;99.90
26107;DHT22;13866;50.748;12.630;2023-06-14T08:48:26;19.60;99.90
26107;DHT22;13866;50.748;12.630;2023-06-14T08:50:56;20.10;99.90
26107;DHT22;13866;50.748;12.630;2023-06-14T08:53:27;20.40;99.90
26107;DHT22;13866;50.748;12.630;2023-06-14T08:55:54;20.70;99.90
26107;DHT22;13866;50.748;12.630;2023-06-14T08:58:21;21.00;98.90
26107;DHT22;13866;50.748;12.630;2023-06-14T09:00:49;20.50;99.40
26107;DHT22;13866;50.748;12.630;2023-06-14T09:03:17;20.30;98.60
26107;DHT22;13866;50.748;12.630;2023-06-14T09:05:45;20.50;98.60
26107;DHT22;13866;50.748;12.630;2023-06-14T09:08:12;20.10;98.90
26107;DHT22;13866;50.748;12.630;2023-06-14T09:10:39;20.20;99.50
26107;DHT22;13866;50.748;12.630;2023-06-14T09:13:06;20.60;97.90
26107;DHT22;13866;50.748;12.630;2023-06-14T09:15:32;20.40;98.30
26107;DHT22;13866;50.748;12.630;2023-06-14T09:17:58;20.60;96.90
26107;DHT22;13866;50.748;12.630;2023-06-14T09:20:26;20.50;98.70
26107;DHT22;13866;50.748;12.630;2023-06-14T09:22:51;20.20;95.80
26107;DHT22;13866;50.748;12.630;2023-06-14T09:25:18;19.80;96.80
26107;DHT22;13866;50.748;12.630;2023-06-14T09:27:46;20.30;96.00
26107;DHT22;13866;50.748;12.630;2023-06-14T09:30:12;20.30;95.90
26107;DHT22;13866;50.748;12.630;2023-06-14T09:32:39;20.90;95.50
26107;DHT22;13866;50.748;12.630;2023-06-14T09:35:09;20.60;93.40
26107;DHT22;13866;50.748;12.630;2023-06-14T09:37:35;20.60;92.70
26107;DHT22;13866;50.748;12.630;2023-06-14T09:40:04;20.60;92.30
26107;DHT22;13866;50.748;12.630;2023-06-14T09:42:30;20.80;92.50
26107;DHT22;13866;50.748;12.630;2023-06-14T09:44:56;21.10;90.40
26107;DHT22;13866;50.748;12.630;2023-06-14T09:47:23;21.60;87.40
26107;DHT22;13866;50.748;12.630;2023-06-14T09:49:49;21.00;88.00
26107;DHT22;13866;50.748;12.630;2023-06-14T09:52:17;21.50;85.80
26107;DHT22;13866;50.748;12.630;2023-06-14T09:54:45;21.80;84.60
26107;DHT22;13866;50.748;12.630;2023-06-14T09:57:22;21.60;80.80
26107;DHT22;13866;50.748;12.630;2023-06-14T09:59:49;21.60;91.30
26107;DHT22;13866;50.748;12.630;2023-06-14T10:02:29;21.60;88.50
26107;DHT22;13866;50.748;12.630;2023-06-14T10:05:06;22.00;87.20
26107;DHT22;13866;50.748;12.630;2023-06-14T10:07:40;21.60;84.30
26107;DHT22;13866;50.748;12.630;2023-06-14T10:10:06;22.00;86.90
26107;DHT22;13866;50.748;12.630;2023-06-14T10:12:32;22.30;84.40
26107;DHT22;13866;50.748;12.630;2023-06-14T10:14:58;22.20;83.10
26107;DHT22;13866;50.748;12.630;2023-06-14T10:17:40;22.40;81.40
26107;DHT22;13866;50.748;12.630;2023-06-14T10:23:00;22.10;82.60
26107;DHT22;13866;50.748;12.630;2023-06-14T10:25:31;22.50;82.10
26107;DHT22;13866;50.748;12.630;2023-06-14T10:28:23;22.40;79.70
26107;DHT22;13866;50.748;12.630;2023-06-14T10:31:10;22.00;79.00
26107;DHT22;13866;50.748;12.630;2023-06-14T10:33:40;21.60;85.10
26107;DHT22;13866;50.748;12.630;2023-06-14T10:36:41;22.10;81.40
26107;DHT22;13866;50.748;12.630;2023-06-14T10:39:11;22.60;78.10
26107;DHT22;13866;50.748;12.630;2023-06-14T10:41:40;22.60;77.30
26107;DHT22;13866;50.748;12.630;2023-06-14T10:46:53;22.90;74.20
26107;DHT22;13866;50.748;12.630;2023-06-14T10:49:20;22.50;72.80
26107;DHT22;13866;50.748;12.630;2023-06-14T10:51:50;22.50;75.80
26107;DHT22;13866;50.748;12.630;2023-06-14T10:54:17;22.30;76.20
26107;DHT22;13866;50.748;12.630;2023-06-14T10:56:47;22.30;77.80
26107;DHT22;13866;50.748;12.630;2023-06-14T10:59:13;22.10;76.90
26107;DHT22;13866;50.748;12.630;2023-06-14T11:04:52;21.40;78.50
26107;DHT22;13866;50.748;12.630;2023-06-14T11:07:33;21.50;75.50
26107;DHT22;13866;50.748;12.630;2023-06-14T11:12:47;22.00;76.60
26107;DHT22;13866;50.748;12.630;2023-06-14T11:15:13;22.00;78.90
26107;DHT22;13866;50.748;12.630;2023-06-14T11:17:38;22.30;76.70
26107;DHT22;13866;50.748;12.630;2023-06-14T11:20:10;22.60;73.40
26107;DHT22;13866;50.748;12.630;2023-06-14T11:22:43;22.20;73.40
26107;DHT22;13866;50.748;12.630;2023-06-14T11:25:09;22.50;73.10
26107;DHT22;13866;50.748;12.630;2023-06-14T11:27:35;22.20;76.90
26107;DHT22;13866;50.748;12.630;2023-06-14T11:30:01;22.30;74.30
26107;DHT22;13866;50.748;12.630;2023-06-14T11:32:27;22.00;73.10
26107;DHT22;13866;50.748;12.630;2023-06-14T11:34:53;22.30;73.60
26107;DHT22;13866;50.748;12.630;2023-06-14T11:37:19;22.00;73.20
26107;DHT22;13866;50.748;12.630;2023-06-14T11:39:45;22.00;70.60
26107;DHT22;13866;50.748;12.630;2023-06-14T11:42:15;22.10;73.10
26107;DHT22;13866;50.748;12.630;2023-06-14T11:44:41;22.40;73.50
26107;DHT22;13866;50.748;12.630;2023-06-14T11:47:06;22.70;73.50
26107;DHT22;13866;50.748;12.630;2023-06-14T11:49:36;22.70;75.20
26107;DHT22;13866;50.748;12.630;2023-06-14T11:52:01;22.60;73.90
26107;DHT22;13866;50.748;12.630;2023-06-14T11:54:27;22.50;72.80
26107;DHT22;13866;50.748;12.630;2023-06-14T11:56:53;22.30;68.00
26107;DHT22;13866;50.748;12.630;2023-06-14T11:59:20;22.00;69.90
26107;DHT22;13866;50.748;12.630;2023-06-14T12:01:47;22.10;72.80
26107;DHT22;13866;50.748;12.630;2023-06-14T12:04:13;22.30;70.70
26107;DHT22;13866;50.748;12.630;2023-06-14T12:06:38;22.30;69.30
26107;DHT22;13866;50.748;12.630;2023-06-14T12:09:05;22.50;66.50
26107;DHT22;13866;50.748;12.630;2023-06-14T12:11:35;22.40;70.50
26107;DHT22;13866;50.748;12.630;2023-06-14T12:14:03;22.00;69.80
26107;DHT22;13866;50.748;12.630;2023-06-14T12:16:34;22.30;70.00
26107;DHT22;13866;50.748;12.630;2023-06-14T12:19:08;22.20;67.80
26107;DHT22;13866;50.748;12.630;2023-06-14T12:21:36;22.30;68.70
26107;DHT22;13866;50.748;12.630;2023-06-14T12:24:04;22.80;66.20
26107;DHT22;13866;50.748;12.630;2023-06-14T12:26:32;22.90;64.50
26107;DHT22;13866;50.748;12.630;2023-06-14T12:28:57;22.90;63.50
26107;DHT22;13866;50.748;12.630;2023-06-14T12:31:23;23.30;59.80
26107;DHT22;13866;50.748;12.630;2023-06-14T12:33:49;23.50;63.30
26107;DHT22;13866;50.748;12.630;2023-06-14T12:36:16;23.30;58.70
26107;DHT22;13866;50.748;12.630;2023-06-14T12:38:42;23.60;59.20
26107;DHT22;13866;50.748;12.630;2023-06-14T12:41:08;23.30;56.90
26107;DHT22;13866;50.748;12.630;2023-06-14T12:43:33;23.20;58.50
26107;DHT22;13866;50.748;12.630;2023-06-14T12:45:59;23.30;58.50
26107;DHT22;13866;50.748;12.630;2023-06-14T12:48:25;22.90;57.60
26107;DHT22;13866;50.748;12.630;2023-06-14T12:50:52;22.70;57.60
26107;DHT22;13866;50.748;12.630;2023-06-14T12:53:18;23.20;57.50
26107;DHT22;13866;50.748;12.630;2023-06-14T12:55:43;23.50;55.80
26107;DHT22;13866;50.748;12.630;2023-06-14T12:58:09;23.30;58.20
26107;DHT22;13866;50.748;12.630;2023-06-14T13:00:35;22.90;58.10
26107;DHT22;13866;50.748;12.630;2023-06-14T13:03:00;22.20;61.30
26107;DHT22;13866;50.748;12.630;2023-06-14T13:05:26;21.90;62.50
26107;DHT22;13866;50.748;12.630;2023-06-14T13:07:51;21.70;60.80
26107;DHT22;13866;50.748;12.630;2023-06-14T13:10:17;21.20;64.20
26107;DHT22;13866;50.748;12.630;2023-06-14T13:12:43;21.70;66.20
26107;DHT22;13866;50.748;12.630;2023-06-14T13:15:09;22.20;61.90
26107;DHT22;13866;50.748;12.630;2023-06-14T13:17:35;22.40;64.60
26107;DHT22;13866;50.748;12.630;2023-06-14T13:20:05;22.50;62.70
26107;DHT22;13866;50.748;12.630;2023-06-14T13:22:31;22.30;61.80
26107;DHT22;13866;50.748;12.630;2023-06-14T13:24:56;22.70;62.50
26107;DHT22;13866;50.748;12.630;2023-06-14T13:27:21;22.50;62.70
26107;DHT22;13866;50.748;12.630;2023-06-14T13:29:49;22.70;62.10
26107;DHT22;13866;50.748;12.630;2023-06-14T13:32:14;22.40;64.20
26107;DHT22;13866;50.748;12.630;2023-06-14T13:34:40;22.60;64.10
26107;DHT22;13866;50.748;12.630;2023-06-14T13:37:05;22.30;63.20
26107;DHT22;13866;50.748;12.630;2023-06-14T13:39:31;22.40;60.30
26107;DHT22;13866;50.748;12.630;2023-06-14T13:41:56;22.20;63.40
26107;DHT22;13866;50.748;12.630;2023-06-14T13:44:22;22.30;63.50
26107;DHT22;13866;50.748;12.630;2023-06-14T13:46:47;22.10;65.80
26107;DHT22;13866;50.748;12.630;2023-06-14T13:49:12;22.00;64.60
26107;DHT22;13866;50.748;12.630;2023-06-14T13:51:38;21.90;65.10
26107;DHT22;13866;50.748;12.630;2023-06-14T13:54:04;22.00;64.60
26107;DHT22;13866;50.748;12.630;2023-06-14T13:56:30;22.00;64.40
26107;DHT22;13866;50.748;12.630;2023-06-14T13:58:55;22.10;64.20
26107;DHT22;13866;50.748;12.630;2023-06-14T14:01:21;22.30;66.40
26107;DHT22;13866;50.748;12.630;2023-06-14T14:03:48;22.40;64.60
26107;DHT22;13866;50.748;12.630;2023-06-14T14:06:15;22.60;62.50
26107;DHT22;13866;50.748;12.630;2023-06-14T14:08:41;21.70;62.90
26107;DHT22;13866;50.748;12.630;2023-06-14T14:11:06;22.10;66.10
26107;DHT22;13866;50.748;12.630;2023-06-14T14:13:33;22.50;63.60
26107;DHT22;13866;50.748;12.630;2023-06-14T14:15:59;22.10;61.70
26107;DHT22;13866;50.748;12.630;2023-06-14T14:18:25;22.30;60.40
26107;DHT22;13866;50.748;12.630;2023-06-14T14:20:50;22.50;59.20
26107;DHT22;13866;50.748;12.630;2023-06-14T14:23:15;22.30;62.70
26107;DHT22;13866;50.748;12.630;2023-06-14T14:25:41;22.40;60.80
26107;DHT22;13866;50.748;12.630;2023-06-14T14:28:07;22.40;61.80
26107;DHT22;13866;50.748;12.630;2023-06-14T14:30:32;22.30;66.90
26107;DHT22;13866;50.748;12.630;2023-06-14T14:32:58;22.00;68.50
26107;DHT22;13866;50.748;12.630;2023-06-14T14:35:25;21.70;69.00
26107;DHT22;13866;50.748;12.630;2023-06-14T14:37:55;21.70;70.70
26107;DHT22;13866;50.748;12.630;2023-06-14T14:40:21;21.30;71.90
26107;DHT22;13866;50.748;12.630;2023-06-14T14:42:47;21.40;71.60
26107;DHT22;13866;50.748;12.630;2023-06-14T14:45:12;21.40;71.80
26107;DHT22;13866;50.748;12.630;2023-06-14T14:47:38;21.30;73.00
26107;DHT22;13866;50.748;12.630;2023-06-14T14:50:04;21.40;73.40
26107;DHT22;13866;50.748;12.630;2023-06-14T14:52:30;21.50;76.90
26107;DHT22;13866;50.748;12.630;2023-06-14T14:54:55;21.40;76.60
26107;DHT22;13866;50.748;12.630;2023-06-14T14:57:21;21.70;76.80
26107;DHT22;13866;50.748;12.630;2023-06-14T14:59:46;21.70;75.20
26107;DHT22;13866;50.748;12.630;2023-06-14T15:02:12;21.70;74.80
26107;DHT22;13866;50.748;12.630;2023-06-14T15:04:37;21.60;75.40
26107;DHT22;13866;50.748;12.630;2023-06-14T15:07:03;21.40;72.90
26107;DHT22;13866;50.748;12.630;2023-06-14T15:09:28;21.40;73.40
26107;DHT22;13866;50.748;12.630;2023-06-14T15:11:54;21.10;77.30
26107;DHT22;13866;50.748;12.630;2023-06-14T15:14:19;21.40;74.10
26107;DHT22;13866;50.748;12.630;2023-06-14T15:16:45;21.50;72.30
26107;DHT22;13866;50.748;12.630;2023-06-14T15:19:10;21.50;73.30
26107;DHT22;13866;50.748;12.630;2023-06-14T15:21:36;21.40;74.70
26107;DHT22;13866;50.748;12.630;2023-06-14T15:24:01;21.00;76.50
26107;DHT22;13866;50.748;12.630;2023-06-14T15:26:27;20.90;75.60